Time;durP1;ratioP1;P1;durP2;ratioP2;P2;SDS_P1;SDS_P2;PMS_P1;PMS_P2;Temp;Humidity;BMP_temperature;BMP_pressure;BME280_temperature;BME280_humidity;BME280_pressure;Samples;Min_cycle;Max_cycle;Signal;HPM_P1;HPM_P2
2021/07/26 00:01:12;;;;;;;11.02;7.65;;;;;;;;;;5100634;28;20543;-79
2021/07/26 00:03:38;;;;;;;11.32;8.13;;;;;;;;;;5083711;28;20107;-79
2021/07/26 00:06:04;;;;;;;10.32;7.35;;;;;;;;;;5101288;28;20055;-79
2021/07/26 00:08:29;;;;;;;10.63;7.68;;;;;;;;;;5119926;28;20094;-79
2021/07/26 00:11:06;;;;;;;12.80;7.30;;;;;;;;;;5102263;28;20044;-81
2021/07/26 00:13:32;;;;;;;16.17;7.53;;;;;;;;;;5120955;28;20039;-79
2021/07/26 00:15:58;;;;;;;12.80;7.50;;;;;;;;;;5120211;28;20020;-80
2021/07/26 00:18:24;;;;;;;12.93;7.57;;;;;;;;;;5103420;28;20126;-79
2021/07/26 00:20:50;;;;;;;12.35;7.78;;;;;;;;;;5102627;28;20181;-80
2021/07/26 00:23:15;;;;;;;10.52;8.65;;;;;;;;;;5105801;28;20036;-79
2021/07/26 00:25:41;;;;;;;9.48;7.32;;;;;;;;;;5107952;28;20051;-79
2021/07/26 00:28:08;;;;;;;15.77;7.72;;;;;;;;;;5090495;28;20039;-79
2021/07/26 00:30:35;;;;;;;10.52;7.93;;;;;;;;;;5106858;28;20059;-80
2021/07/26 00:33:00;;;;;;;12.27;8.38;;;;;;;;;;5123317;28;20098;-79
2021/07/26 00:35:25;;;;;;;14.93;8.20;;;;;;;;;;5106292;28;20520;-79
2021/07/26 00:37:51;;;;;;;10.77;7.35;;;;;;;;;;5121586;28;20043;-79
2021/07/26 00:40:18;;;;;;;8.68;7.25;;;;;;;;;;5087406;28;20035;-78
2021/07/26 00:42:44;;;;;;;9.13;7.00;;;;;;;;;;5121877;28;20077;-79
2021/07/26 00:45:10;;;;;;;12.27;7.28;;;;;;;;;;5102737;28;20041;-80
2021/07/26 00:47:35;;;;;;;8.82;7.70;;;;;;;;;;5101652;28;20501;-79
2021/07/26 00:50:04;;;;;;;9.18;7.50;;;;;;;;;;5100048;28;20057;-80
2021/07/26 00:52:30;;;;;;;10.27;8.02;;;;;;;;;;5105192;28;20040;-79
2021/07/26 00:54:55;;;;;;;10.80;7.25;;;;;;;;;;5107904;28;20410;-79
2021/07/26 00:57:22;;;;;;;11.07;6.47;;;;;;;;;;5091289;28;20082;-79
2021/07/26 00:59:49;;;;;;;7.68;6.45;;;;;;;;;;5107010;28;20134;-79
2021/07/26 01:02:16;;;;;;;8.30;6.25;;;;;;;;;;5106579;28;20028;-79
2021/07/26 01:04:42;;;;;;;8.90;6.57;;;;;;;;;;5107542;28;20410;-79
2021/07/26 01:07:07;;;;;;;9.05;6.80;;;;;;;;;;5124387;28;20035;-78
2021/07/26 01:09:34;;;;;;;13.60;6.93;;;;;;;;;;5090180;28;20494;-79
2021/07/26 01:11:59;;;;;;;8.45;6.70;;;;;;;;;;5089638;28;20095;-79
2021/07/26 01:14:25;;;;;;;11.57;6.75;;;;;;;;;;5089065;28;20035;-80
2021/07/26 01:16:50;;;;;;;10.13;6.70;;;;;;;;;;5105311;28;20114;-79
2021/07/26 01:19:16;;;;;;;9.40;7.05;;;;;;;;;;5106623;27;20054;-79
2021/07/26 01:21:42;;;;;;;11.18;6.28;;;;;;;;;;5125641;27;20034;-79
2021/07/26 01:24:08;;;;;;;14.57;8.20;;;;;;;;;;5124664;27;20502;-78
2021/07/26 01:26:34;;;;;;;10.00;6.10;;;;;;;;;;5123904;27;20106;-79
2021/07/26 01:29:05;;;;;;;11.60;6.07;;;;;;;;;;5124406;27;20039;-79
2021/07/26 01:31:32;;;;;;;10.00;6.78;;;;;;;;;;5098085;28;20114;-78
2021/07/26 01:33:58;;;;;;;8.13;5.13;;;;;;;;;;5083803;28;20063;-78
2021/07/26 01:36:24;;;;;;;8.13;5.00;;;;;;;;;;5102690;28;20502;-78
2021/07/26 01:38:52;;;;;;;8.27;5.15;;;;;;;;;;5083547;28;20032;-78
2021/07/26 01:41:26;;;;;;;10.27;4.78;;;;;;;;;;5083482;28;20501;-78
2021/07/26 01:44:13;;;;;;;6.82;4.97;;;;;;;;;;5066821;28;20032;-78
2021/07/26 01:46:48;;;;;;;11.07;5.00;;;;;;;;;;5094731;28;20036;-79
2021/07/26 01:49:46;;;;;;;6.80;5.07;;;;;;;;;;5083270;28;20498;-79
2021/07/26 01:52:13;;;;;;;7.18;4.85;;;;;;;;;;5083463;28;20123;-79
2021/07/26 01:54:39;;;;;;;4.97;4.40;;;;;;;;;;5100863;28;20065;-79
2021/07/26 01:57:05;;;;;;;9.02;5.40;;;;;;;;;;5084714;28;20093;-79
2021/07/26 01:59:31;;;;;;;9.55;5.07;;;;;;;;;;5102560;28;20047;-78
2021/07/26 02:01:57;;;;;;;6.65;4.97;;;;;;;;;;5084328;28;20028;-78
2021/07/26 02:04:23;;;;;;;6.82;4.68;;;;;;;;;;5082987;28;20088;-80
2021/07/26 02:06:49;;;;;;;8.43;5.25;;;;;;;;;;5081519;28;20039;-79
2021/07/26 02:09:16;;;;;;;10.98;5.15;;;;;;;;;;5066786;28;20028;-80
2021/07/26 02:11:41;;;;;;;8.60;5.07;;;;;;;;;;5065506;28;20032;-79
2021/07/26 02:14:10;;;;;;;10.90;4.85;;;;;;;;;;5082688;28;20039;-79
2021/07/26 02:16:39;;;;;;;11.02;6.30;;;;;;;;;;5080277;28;20028;-79
2021/07/26 02:19:06;;;;;;;10.50;5.32;;;;;;;;;;5081640;28;20036;-81
2021/07/26 02:21:32;;;;;;;8.63;5.45;;;;;;;;;;5089117;28;20028;-79
2021/07/26 02:23:58;;;;;;;11.13;5.07;;;;;;;;;;5064105;28;20056;-79
2021/07/26 02:26:23;;;;;;;10.70;4.65;;;;;;;;;;5067080;28;20036;-79
2021/07/26 02:28:50;;;;;;;7.75;4.57;;;;;;;;;;5067978;28;20410;-79
2021/07/26 02:31:15;;;;;;;10.52;4.57;;;;;;;;;;5067201;28;20064;-79
2021/07/26 02:33:43;;;;;;;7.03;5.05;;;;;;;;;;5064293;28;20025;-80
2021/07/26 02:36:09;;;;;;;6.05;4.53;;;;;;;;;;5064499;28;20042;-79
2021/07/26 02:38:36;;;;;;;5.75;4.45;;;;;;;;;;5085651;28;20037;-80
2021/07/26 02:41:13;;;;;;;5.20;4.35;;;;;;;;;;5067413;28;20096;-79
2021/07/26 02:43:39;;;;;;;8.88;4.18;;;;;;;;;;5095780;28;20118;-80
2021/07/26 02:46:06;;;;;;;10.63;4.78;;;;;;;;;;5103679;28;20036;-80
2021/07/26 02:48:38;;;;;;;6.95;4.25;;;;;;;;;;5105285;28;20089;-78
2021/07/26 02:51:06;;;;;;;7.47;4.35;;;;;;;;;;5102856;28;20051;-78
2021/07/26 02:53:31;;;;;;;7.63;4.30;;;;;;;;;;5097285;28;20038;-82
2021/07/26 02:55:57;;;;;;;5.13;3.83;;;;;;;;;;5100537;28;20063;-86
2021/07/26 02:58:23;;;;;;;5.70;3.55;;;;;;;;;;5101372;28;20094;-82
2021/07/26 03:00:50;;;;;;;9.45;4.07;;;;;;;;;;5100287;28;20032;-78
2021/07/26 03:03:16;;;;;;;5.28;3.50;;;;;;;;;;5097244;28;20441;-78
2021/07/26 03:05:41;;;;;;;7.22;4.00;;;;;;;;;;5098323;28;20081;-79
2021/07/26 03:08:11;;;;;;;6.90;4.07;;;;;;;;;;5101713;28;20468;-78
2021/07/26 03:10:41;;;;;;;3.47;2.90;;;;;;;;;;5094254;28;20033;-79
2021/07/26 03:13:07;;;;;;;6.82;3.17;;;;;;;;;;5077019;28;20062;-81
2021/07/26 03:15:36;;;;;;;10.57;4.22;;;;;;;;;;5078226;28;20029;-78
2021/07/26 03:18:05;;;;;;;10.32;4.00;;;;;;;;;;5079442;28;20036;-78
2021/07/26 03:20:30;;;;;;;11.90;4.00;;;;;;;;;;5078627;28;20028;-78
2021/07/26 03:22:59;;;;;;;15.57;5.03;;;;;;;;;;5078435;28;20028;-77
2021/07/26 03:25:30;;;;;;;9.88;4.88;;;;;;;;;;5061275;28;20045;-77
2021/07/26 03:27:56;;;;;;;11.35;5.00;;;;;;;;;;5058635;28;20458;-79
2021/07/26 03:30:21;;;;;;;9.90;5.43;;;;;;;;;;5058756;28;20051;-78
2021/07/26 03:32:47;;;;;;;17.10;6.88;;;;;;;;;;5059001;28;20044;-78
2021/07/26 03:35:14;;;;;;;27.30;7.30;;;;;;;;;;5059210;28;20032;-78
2021/07/26 03:37:40;;;;;;;16.65;5.93;;;;;;;;;;5059027;28;20071;-78
2021/07/26 03:40:06;;;;;;;16.60;7.50;;;;;;;;;;5058829;28;20037;-78
2021/07/26 03:42:36;;;;;;;10.40;6.35;;;;;;;;;;5078022;28;20036;-79
2021/07/26 03:45:03;;;;;;;10.07;5.20;;;;;;;;;;5070349;28;20036;-78
2021/07/26 03:47:29;;;;;;;13.13;4.97;;;;;;;;;;5058310;28;20116;-77
2021/07/26 03:49:54;;;;;;;6.15;4.07;;;;;;;;;;5058185;28;20068;-78
2021/07/26 03:52:19;;;;;;;7.90;4.90;;;;;;;;;;5042052;28;20127;-78
2021/07/26 03:54:45;;;;;;;12.77;5.00;;;;;;;;;;5059506;28;20043;-79
2021/07/26 03:57:10;;;;;;;17.23;5.60;;;;;;;;;;5059618;28;20040;-78
2021/07/26 03:59:36;;;;;;;13.00;5.05;;;;;;;;;;5059197;28;20052;-78
2021/07/26 04:02:02;;;;;;;8.20;4.72;;;;;;;;;;5059841;28;20040;-77
2021/07/26 04:04:27;;;;;;;11.88;4.97;;;;;;;;;;5041484;28;20101;-79
2021/07/26 04:06:57;;;;;;;10.30;4.85;;;;;;;;;;5042145;28;20052;-78
2021/07/26 04:09:25;;;;;;;8.90;4.93;;;;;;;;;;5059415;28;20064;-78
2021/07/26 04:11:58;;;;;;;11.38;4.65;;;;;;;;;;5041898;28;20463;-79
2021/07/26 04:14:28;;;;;;;10.00;5.15;;;;;;;;;;5043251;28;20480;-79
2021/07/26 04:16:54;;;;;;;12.07;5.25;;;;;;;;;;5061985;28;20029;-79
2021/07/26 04:19:19;;;;;;;8.98;5.85;;;;;;;;;;5061647;28;20037;-78
2021/07/26 04:21:47;;;;;;;14.10;7.40;;;;;;;;;;5077006;28;20035;-79
2021/07/26 04:24:15;;;;;;;9.23;6.97;;;;;;;;;;5084642;28;20473;-79
2021/07/26 04:26:42;;;;;;;15.82;7.93;;;;;;;;;;5100548;28;20043;-78
2021/07/26 04:29:08;;;;;;;11.75;7.35;;;;;;;;;;5086935;28;20441;-79
2021/07/26 04:31:33;;;;;;;9.50;6.57;;;;;;;;;;5087611;28;20103;-78
2021/07/26 04:33:59;;;;;;;20.17;6.47;;;;;;;;;;5104349;28;20110;-79
2021/07/26 04:36:24;;;;;;;11.90;6.57;;;;;;;;;;5106002;28;20380;-80
2021/07/26 04:38:51;;;;;;;13.82;7.20;;;;;;;;;;5088005;28;20046;-78
2021/07/26 04:41:16;;;;;;;21.65;7.10;;;;;;;;;;5087861;28;20053;-78
2021/07/26 04:43:41;;;;;;;12.82;6.38;;;;;;;;;;5087583;28;20057;-78
2021/07/26 04:46:09;;;;;;;34.03;6.97;;;;;;;;;;5086217;28;20035;-79
2021/07/26 04:48:36;;;;;;;19.40;7.00;;;;;;;;;;5067057;28;20037;-79
2021/07/26 04:51:02;;;;;;;15.88;6.90;;;;;;;;;;5084517;28;20051;-79
2021/07/26 04:53:28;;;;;;;10.65;6.50;;;;;;;;;;5065636;28;20047;-78
2021/07/26 04:55:53;;;;;;;16.45;6.68;;;;;;;;;;5082151;28;20044;-78
2021/07/26 04:58:20;;;;;;;13.35;6.03;;;;;;;;;;5068752;28;20028;-78
2021/07/26 05:00:46;;;;;;;6.88;5.35;;;;;;;;;;5101983;28;20036;-78
2021/07/26 05:03:12;;;;;;;7.72;5.22;;;;;;;;;;5101229;28;20039;-79
2021/07/26 05:05:38;;;;;;;8.00;6.20;;;;;;;;;;5101067;28;20039;-78
2021/07/26 05:08:04;;;;;;;11.40;6.57;;;;;;;;;;5101925;28;20035;-78
2021/07/26 05:10:30;;;;;;;10.02;5.30;;;;;;;;;;5101017;28;20035;-78
2021/07/26 05:12:56;;;;;;;7.60;5.63;;;;;;;;;;5100903;28;20043;-78
2021/07/26 05:15:22;;;;;;;10.15;5.72;;;;;;;;;;5101210;28;20036;-78
2021/07/26 05:17:48;;;;;;;5.60;4.75;;;;;;;;;;5101092;28;20038;-79
2021/07/26 05:20:14;;;;;;;8.10;4.30;;;;;;;;;;5096063;28;20060;-79
2021/07/26 05:22:40;;;;;;;6.82;4.85;;;;;;;;;;5081714;28;20032;-78
2021/07/26 05:25:07;;;;;;;6.70;4.72;;;;;;;;;;5066210;28;20068;-78
2021/07/26 05:27:32;;;;;;;6.82;5.10;;;;;;;;;;5061299;28;20041;-78
2021/07/26 05:29:57;;;;;;;6.43;4.93;;;;;;;;;;5061396;28;20123;-78
2021/07/26 05:32:23;;;;;;;7.28;4.75;;;;;;;;;;5061722;28;20092;-79
2021/07/26 05:34:49;;;;;;;8.50;5.45;;;;;;;;;;5062367;28;20033;-78
2021/07/26 05:37:15;;;;;;;10.90;6.20;;;;;;;;;;5062522;28;20067;-78
2021/07/26 05:39:40;;;;;;;9.55;5.70;;;;;;;;;;5044634;28;20033;-77
2021/07/26 05:42:06;;;;;;;7.40;5.85;;;;;;;;;;5061827;28;20369;-78
2021/07/26 05:44:32;;;;;;;8.43;6.25;;;;;;;;;;5063518;28;20063;-77
2021/07/26 05:46:57;;;;;;;7.30;6.10;;;;;;;;;;5064728;28;20399;-80
2021/07/26 05:49:23;;;;;;;10.88;6.15;;;;;;;;;;5064917;28;20086;-78
2021/07/26 05:51:49;;;;;;;9.57;5.45;;;;;;;;;;5064832;28;20039;-78
2021/07/26 05:54:15;;;;;;;9.02;6.00;;;;;;;;;;5065332;28;20119;-77
2021/07/26 05:56:46;;;;;;;9.02;5.35;;;;;;;;;;5065230;28;20046;-79
2021/07/26 05:59:11;;;;;;;7.97;6.03;;;;;;;;;;5081750;28;20056;-78
2021/07/26 06:01:47;;;;;;;9.60;5.25;;;;;;;;;;5081352;28;20043;-78
2021/07/26 06:04:21;;;;;;;9.40;5.85;;;;;;;;;;5062966;28;20036;-77
2021/07/26 06:06:49;;;;;;;9.95;6.57;;;;;;;;;;5063225;28;20060;-78
2021/07/26 06:09:15;;;;;;;10.85;5.50;;;;;;;;;;5087878;28;20414;-79
2021/07/26 06:11:42;;;;;;;9.75;6.50;;;;;;;;;;5063831;28;20143;-77
2021/07/26 06:14:09;;;;;;;8.05;5.68;;;;;;;;;;5063670;28;20055;-84
2021/07/26 06:16:39;;;;;;;9.68;6.20;;;;;;;;;;5059263;28;20036;-81
2021/07/26 06:19:09;;;;;;;11.13;7.55;;;;;;;;;;5058794;28;20484;-82
2021/07/26 06:21:48;;;;;;;11.65;8.15;;;;;;;;;;5040822;28;20030;-82
2021/07/26 06:24:15;;;;;;;17.40;7.70;;;;;;;;;;5061483;28;20045;-80
2021/07/26 06:26:41;;;;;;;8.05;7.20;;;;;;;;;;5062270;28;20071;-83
2021/07/26 06:29:07;;;;;;;13.55;7.80;;;;;;;;;;5062994;28;20033;-83
2021/07/26 06:31:33;;;;;;;9.73;7.80;;;;;;;;;;5063720;28;20098;-83
2021/07/26 06:33:59;;;;;;;10.75;6.43;;;;;;;;;;5080829;28;20040;-84
2021/07/26 06:36:25;;;;;;;7.95;6.28;;;;;;;;;;5060991;28;20036;-82
2021/07/26 06:38:53;;;;;;;9.13;6.30;;;;;;;;;;5061848;28;20017;-80
2021/07/26 06:41:19;;;;;;;9.27;5.78;;;;;;;;;;5062110;28;20028;-83
2021/07/26 06:43:45;;;;;;;8.35;5.18;;;;;;;;;;5063096;28;20066;-82
2021/07/26 06:46:10;;;;;;;8.02;4.88;;;;;;;;;;5057925;28;20037;-80
2021/07/26 06:48:36;;;;;;;4.03;3.20;;;;;;;;;;5041346;28;20068;-83
2021/07/26 06:51:04;;;;;;;4.95;3.67;;;;;;;;;;5059572;28;20029;-78
2021/07/26 06:53:32;;;;;;;4.70;3.20;;;;;;;;;;5048662;28;20040;-79
2021/07/26 06:56:03;;;;;;;3.80;3.00;;;;;;;;;;5044761;28;20488;-79
2021/07/26 06:58:29;;;;;;;5.15;2.97;;;;;;;;;;5058540;28;20041;-80
2021/07/26 07:00:54;;;;;;;3.47;2.60;;;;;;;;;;5060153;28;20028;-84
2021/07/26 07:03:20;;;;;;;4.38;2.72;;;;;;;;;;5048910;28;20064;-84
2021/07/26 07:05:46;;;;;;;3.15;2.75;;;;;;;;;;5047270;28;20377;-85
2021/07/26 07:08:12;;;;;;;5.75;3.35;;;;;;;;;;5046575;28;20037;-87
2021/07/26 07:10:38;;;;;;;5.72;3.03;;;;;;;;;;5063398;28;20407;-84
2021/07/26 07:13:03;;;;;;;4.30;2.65;;;;;;;;;;5066542;28;20052;-84
2021/07/26 07:15:30;;;;;;;3.97;2.60;;;;;;;;;;5062720;28;20071;-83
2021/07/26 07:17:55;;;;;;;4.28;2.95;;;;;;;;;;5053681;28;20056;-84
2021/07/26 07:20:21;;;;;;;4.68;2.70;;;;;;;;;;5046629;28;20037;-82
2021/07/26 07:22:46;;;;;;;3.75;3.00;;;;;;;;;;5063454;28;20033;-83
2021/07/26 07:25:12;;;;;;;4.00;2.92;;;;;;;;;;5065784;28;20567;-84
2021/07/26 07:27:38;;;;;;;6.05;3.00;;;;;;;;;;5050055;28;20096;-85
2021/07/26 07:30:04;;;;;;;5.53;3.20;;;;;;;;;;5065897;28;20458;-82
2021/07/26 07:32:32;;;;;;;5.10;3.30;;;;;;;;;;5046625;28;20067;-83
2021/07/26 07:34:57;;;;;;;5.75;2.72;;;;;;;;;;5064881;28;20041;-82
2021/07/26 07:37:25;;;;;;;4.82;2.53;;;;;;;;;;5062495;28;20051;-83
2021/07/26 07:39:50;;;;;;;4.28;2.55;;;;;;;;;;5063382;28;20045;-83
2021/07/26 07:42:17;;;;;;;3.00;2.40;;;;;;;;;;5065170;28;20037;-80
2021/07/26 07:44:43;;;;;;;7.10;2.42;;;;;;;;;;5065694;28;20025;-80
2021/07/26 07:47:11;;;;;;;4.65;2.75;;;;;;;;;;5049128;28;20032;-80
2021/07/26 07:49:36;;;;;;;6.22;2.80;;;;;;;;;;5049767;28;20094;-80
2021/07/26 07:52:02;;;;;;;4.05;2.60;;;;;;;;;;5065739;28;20531;-81
2021/07/26 07:54:33;;;;;;;3.45;2.47;;;;;;;;;;5045686;28;20103;-81
2021/07/26 07:56:59;;;;;;;4.50;2.65;;;;;;;;;;5047760;28;20080;-82
2021/07/26 07:59:24;;;;;;;3.50;2.50;;;;;;;;;;5052209;28;20476;-80
2021/07/26 08:01:49;;;;;;;4.22;2.47;;;;;;;;;;5051769;28;20040;-81
2021/07/26 08:04:15;;;;;;;8.20;2.53;;;;;;;;;;5053205;28;20124;-80
2021/07/26 08:06:43;;;;;;;4.82;2.50;;;;;;;;;;5055698;28;20060;-81
2021/07/26 08:09:09;;;;;;;5.35;2.40;;;;;;;;;;5055056;28;20044;-81
2021/07/26 08:11:35;;;;;;;4.75;2.72;;;;;;;;;;5071093;28;20041;-80
2021/07/26 08:14:00;;;;;;;6.45;2.50;;;;;;;;;;5058625;28;20036;-81
2021/07/26 08:16:27;;;;;;;3.13;2.30;;;;;;;;;;5091460;28;20037;-80
2021/07/26 08:18:53;;;;;;;3.28;2.40;;;;;;;;;;5073386;28;20032;-80
2021/07/26 08:21:18;;;;;;;9.93;2.78;;;;;;;;;;5073468;28;20051;-80
2021/07/26 08:23:44;;;;;;;2.83;2.50;;;;;;;;;;5080096;28;20047;-81
2021/07/26 08:26:12;;;;;;;7.55;2.72;;;;;;;;;;5097314;28;20035;-80
2021/07/26 08:28:38;;;;;;;4.75;2.45;;;;;;;;;;5097517;28;20036;-80
2021/07/26 08:31:03;;;;;;;4.00;3.25;;;;;;;;;;5113464;28;20035;-80
2021/07/26 08:33:29;;;;;;;3.53;2.22;;;;;;;;;;5097694;28;20053;-80
2021/07/26 08:35:54;;;;;;;4.53;2.58;;;;;;;;;;5096599;28;20028;-81
2021/07/26 08:38:22;;;;;;;5.25;2.05;;;;;;;;;;5096051;28;20031;-81
2021/07/26 08:40:48;;;;;;;3.85;2.08;;;;;;;;;;5096153;28;20038;-80
2021/07/26 08:43:14;;;;;;;4.95;2.20;;;;;;;;;;5095305;28;20028;-80
2021/07/26 08:45:39;;;;;;;5.20;1.77;;;;;;;;;;5092579;28;20112;-81
2021/07/26 08:48:06;;;;;;;5.68;2.33;;;;;;;;;;5076903;28;20499;-81
2021/07/26 08:50:35;;;;;;;3.55;2.08;;;;;;;;;;5110405;28;20032;-81
2021/07/26 08:53:03;;;;;;;12.15;2.58;;;;;;;;;;5093322;28;20059;-81
2021/07/26 08:55:29;;;;;;;3.10;1.90;;;;;;;;;;5092490;28;20032;-80
2021/07/26 08:57:55;;;;;;;3.75;2.03;;;;;;;;;;5076235;28;20032;-80
2021/07/26 09:00:21;;;;;;;4.18;1.90;;;;;;;;;;5092700;28;20035;-80
2021/07/26 09:02:46;;;;;;;6.18;2.15;;;;;;;;;;5075423;28;20047;-80
2021/07/26 09:05:13;;;;;;;2.45;1.60;;;;;;;;;;5087795;28;20082;-78
2021/07/26 09:07:40;;;;;;;3.97;2.30;;;;;;;;;;5086495;28;20036;-78
2021/07/26 09:10:19;;;;;;;7.32;2.90;;;;;;;;;;5071773;28;20081;-79
2021/07/26 09:12:47;;;;;;;3.58;2.00;;;;;;;;;;5069355;28;20093;-83
2021/07/26 09:15:15;;;;;;;3.95;1.90;;;;;;;;;;5107684;28;20038;-86
2021/07/26 09:17:45;;;;;;;21.75;16.40;;;;;;;;;;5089397;28;20059;-84
2021/07/26 09:20:12;;;;;;;4.13;2.90;;;;;;;;;;5087047;28;20043;-83
2021/07/26 09:22:41;;;;;;;3.30;2.40;;;;;;;;;;5086127;28;20035;-86
2021/07/26 09:25:23;;;;;;;3.22;2.10;;;;;;;;;;5088809;28;20044;-85
2021/07/26 09:28:12;;;;;;;3.38;2.17;;;;;;;;;;5059368;28;20040;-87
2021/07/26 09:30:40;;;;;;;3.42;2.15;;;;;;;;;;5062268;28;20055;-86
2021/07/26 09:33:26;;;;;;;6.10;2.60;;;;;;;;;;5062036;28;20039;-85
2021/07/26 09:36:08;;;;;;;5.10;1.90;;;;;;;;;;5052246;28;20420;-85
2021/07/26 09:38:35;;;;;;;3.58;1.85;;;;;;;;;;5045418;28;20406;-83
2021/07/26 09:41:01;;;;;;;3.90;2.08;;;;;;;;;;5043113;28;20052;-84
2021/07/26 09:43:27;;;;;;;4.57;2.10;;;;;;;;;;5051529;28;20036;-82
2021/07/26 09:45:55;;;;;;;2.28;1.73;;;;;;;;;;5081644;28;20043;-82
2021/07/26 09:48:26;;;;;;;5.32;1.90;;;;;;;;;;5063604;28;20093;-80
2021/07/26 09:50:52;;;;;;;3.33;2.22;;;;;;;;;;5065520;28;20037;-86
2021/07/26 09:53:22;;;;;;;6.30;1.98;;;;;;;;;;5065122;28;20029;-85
2021/07/26 09:55:50;;;;;;;3.00;1.70;;;;;;;;;;5065972;28;20047;-86
2021/07/26 09:58:17;;;;;;;3.03;1.90;;;;;;;;;;5071361;28;20048;-85
2021/07/26 10:00:44;;;;;;;4.03;2.00;;;;;;;;;;5070485;28;20032;-86
2021/07/26 10:03:12;;;;;;;3.50;1.90;;;;;;;;;;5068240;28;20040;-85
2021/07/26 10:05:39;;;;;;;8.90;3.08;;;;;;;;;;5065174;28;20045;-85
2021/07/26 10:08:07;;;;;;;4.70;2.20;;;;;;;;;;5068304;28;20040;-85
2021/07/26 10:10:34;;;;;;;2.60;1.73;;;;;;;;;;5068497;28;20043;-87
2021/07/26 10:13:01;;;;;;;2.42;1.77;;;;;;;;;;5079355;28;20068;-80
2021/07/26 10:15:29;;;;;;;2.53;1.92;;;;;;;;;;5066418;28;20399;-82
2021/07/26 10:17:55;;;;;;;2.60;1.70;;;;;;;;;;5061580;28;20028;-83
2021/07/26 10:20:24;;;;;;;2.28;1.83;;;;;;;;;;5079909;28;20039;-81
2021/07/26 10:23:09;;;;;;;2.92;1.80;;;;;;;;;;5081544;28;20074;-81
2021/07/26 10:25:40;;;;;;;3.42;2.25;;;;;;;;;;5062615;28;20044;-80
2021/07/26 10:28:11;;;;;;;6.82;2.78;;;;;;;;;;5061241;28;20066;-81
2021/07/26 10:30:38;;;;;;;3.25;1.75;;;;;;;;;;5062142;28;20048;-80
2021/07/26 10:33:04;;;;;;;3.10;1.67;;;;;;;;;;5069105;28;20033;-80
2021/07/26 10:35:40;;;;;;;1.92;1.67;;;;;;;;;;5060546;28;20163;-80
2021/07/26 10:38:07;;;;;;;2.55;1.55;;;;;;;;;;5058395;28;20035;-81
2021/07/26 10:40:38;;;;;;;2.63;1.77;;;;;;;;;;5042301;28;20032;-82
2021/07/26 10:43:04;;;;;;;1.95;1.65;;;;;;;;;;5068509;28;20037;-80
2021/07/26 10:45:35;;;;;;;2.08;1.60;;;;;;;;;;5064294;28;20044;-80
2021/07/26 10:48:20;;;;;;;5.85;1.90;;;;;;;;;;5065340;28;20068;-79
2021/07/26 10:50:51;;;;;;;3.08;1.90;;;;;;;;;;5066138;28;20032;-80
2021/07/26 10:53:32;;;;;;;3.50;2.17;;;;;;;;;;5066874;28;20063;-80
2021/07/26 10:56:06;;;;;;;5.00;3.05;;;;;;;;;;5064429;28;20048;-80
2021/07/26 10:58:37;;;;;;;4.05;2.22;;;;;;;;;;5063847;28;20372;-79
2021/07/26 11:01:21;;;;;;;3.28;2.00;;;;;;;;;;5062417;28;20090;-81
2021/07/26 11:03:48;;;;;;;4.93;2.63;;;;;;;;;;5061578;28;20037;-81
2021/07/26 11:06:36;;;;;;;4.05;2.00;;;;;;;;;;5058695;28;20166;-78
2021/07/26 11:09:24;;;;;;;4.28;1.88;;;;;;;;;;5061981;28;20032;-78
2021/07/26 11:11:53;;;;;;;2.35;2.08;;;;;;;;;;5075197;28;20071;-78
2021/07/26 11:14:19;;;;;;;3.85;1.77;;;;;;;;;;5083658;28;20036;-78
2021/07/26 11:17:04;;;;;;;3.03;2.20;;;;;;;;;;5064903;28;20136;-78
2021/07/26 11:19:44;;;;;;;3.65;2.08;;;;;;;;;;5063909;28;20058;-78
2021/07/26 11:22:15;;;;;;;9.25;3.65;;;;;;;;;;5080959;28;20112;-78
2021/07/26 11:24:44;;;;;;;5.07;2.00;;;;;;;;;;5074635;28;20048;-79
2021/07/26 11:27:15;;;;;;;4.95;2.00;;;;;;;;;;5102283;28;20043;-78
2021/07/26 11:29:52;;;;;;;4.93;2.13;;;;;;;;;;5102581;28;20032;-79
2021/07/26 11:32:19;;;;;;;3.63;2.03;;;;;;;;;;5104650;28;20035;-79
2021/07/26 11:34:44;;;;;;;5.25;2.40;;;;;;;;;;5107438;28;20043;-79
2021/07/26 11:37:13;;;;;;;2.65;2.00;;;;;;;;;;5107183;28;20028;-79
2021/07/26 11:39:53;;;;;;;3.13;2.00;;;;;;;;;;5107567;28;20402;-79
2021/07/26 11:42:19;;;;;;;6.82;2.40;;;;;;;;;;5107467;28;20035;-79
2021/07/26 11:44:47;;;;;;;4.07;1.80;;;;;;;;;;5105398;28;20032;-79
2021/07/26 11:47:15;;;;;;;5.90;2.13;;;;;;;;;;5086143;28;20055;-79
2021/07/26 11:50:03;;;;;;;4.10;2.22;;;;;;;;;;5086184;28;20035;-79
2021/07/26 11:52:28;;;;;;;2.95;1.92;;;;;;;;;;5069235;28;20292;-80
2021/07/26 11:54:54;;;;;;;2.65;1.92;;;;;;;;;;5085717;28;20044;-79
2021/07/26 11:57:20;;;;;;;3.90;2.10;;;;;;;;;;5085155;28;20414;-79
2021/07/26 11:59:50;;;;;;;2.67;1.95;;;;;;;;;;5085438;28;20095;-79
2021/07/26 12:02:31;;;;;;;3.35;2.35;;;;;;;;;;5067649;28;20496;-79
2021/07/26 12:05:02;;;;;;;3.75;2.20;;;;;;;;;;5067859;28;20032;-79
2021/07/26 12:07:44;;;;;;;4.13;2.17;;;;;;;;;;5068647;28;20104;-79
2021/07/26 12:10:15;;;;;;;5.25;1.77;;;;;;;;;;5085073;28;20081;-79
2021/07/26 12:12:45;;;;;;;4.60;1.85;;;;;;;;;;5066873;28;20039;-79
2021/07/26 12:15:23;;;;;;;3.00;2.08;;;;;;;;;;5067429;28;20043;-79
2021/07/26 12:18:02;;;;;;;3.30;1.63;;;;;;;;;;5079757;28;20136;-79
2021/07/26 12:20:27;;;;;;;4.13;2.00;;;;;;;;;;5106009;28;20040;-79
2021/07/26 12:22:53;;;;;;;2.90;1.83;;;;;;;;;;5103767;28;20032;-79
2021/07/26 12:25:22;;;;;;;3.80;1.80;;;;;;;;;;5088338;28;20044;-79
2021/07/26 12:28:02;;;;;;;3.85;1.92;;;;;;;;;;5083686;28;20514;-79
2021/07/26 12:30:38;;;;;;;2.13;1.50;;;;;;;;;;5067395;28;20047;-79
2021/07/26 12:33:06;;;;;;;3.67;1.80;;;;;;;;;;5083049;28;20450;-79
2021/07/26 12:35:32;;;;;;;4.00;1.60;;;;;;;;;;5084333;28;20032;-79
2021/07/26 12:38:16;;;;;;;6.35;1.65;;;;;;;;;;5065438;28;20056;-79
2021/07/26 12:40:45;;;;;;;3.58;1.90;;;;;;;;;;5085503;28;20449;-79
2021/07/26 12:43:16;;;;;;;5.22;2.20;;;;;;;;;;5083080;28;20028;-79
2021/07/26 12:45:55;;;;;;;2.35;1.80;;;;;;;;;;5066202;28;20037;-79
2021/07/26 12:48:22;;;;;;;7.85;1.75;;;;;;;;;;5066102;28;20044;-79
2021/07/26 12:50:50;;;;;;;4.60;1.85;;;;;;;;;;5085504;28;20032;-79
2021/07/26 12:53:16;;;;;;;3.97;1.90;;;;;;;;;;5068724;28;20033;-79
2021/07/26 12:55:44;;;;;;;3.40;2.33;;;;;;;;;;5070637;28;20035;-79
2021/07/26 12:58:11;;;;;;;2.35;1.80;;;;;;;;;;5069281;28;20131;-79
2021/07/26 13:00:40;;;;;;;3.08;1.67;;;;;;;;;;5085383;28;20036;-79
2021/07/26 13:03:11;;;;;;;1.75;1.50;;;;;;;;;;5086116;28;20039;-81
2021/07/26 13:05:37;;;;;;;2.92;2.00;;;;;;;;;;5069668;28;20487;-79
2021/07/26 13:08:03;;;;;;;2.65;1.98;;;;;;;;;;5088384;28;20545;-79
2021/07/26 13:10:29;;;;;;;1.88;1.77;;;;;;;;;;5072030;28;20036;-79
2021/07/26 13:12:54;;;;;;;4.68;1.63;;;;;;;;;;5086901;28;20060;-79
2021/07/26 13:15:20;;;;;;;2.92;1.70;;;;;;;;;;5070166;28;20044;-79
2021/07/26 13:17:45;;;;;;;5.65;2.20;;;;;;;;;;5071372;28;20468;-79
2021/07/26 13:20:11;;;;;;;2.08;1.75;;;;;;;;;;5070422;28;20123;-79
2021/07/26 13:22:38;;;;;;;4.68;1.80;;;;;;;;;;5087189;28;20024;-79
2021/07/26 13:25:05;;;;;;;2.53;1.70;;;;;;;;;;5084825;28;20166;-79
2021/07/26 13:27:31;;;;;;;3.25;2.25;;;;;;;;;;5084960;28;20044;-78
2021/07/26 13:29:57;;;;;;;1.98;1.77;;;;;;;;;;5070032;28;20039;-78
2021/07/26 13:32:22;;;;;;;3.22;1.67;;;;;;;;;;5086302;28;20410;-78
2021/07/26 13:34:47;;;;;;;3.55;1.52;;;;;;;;;;5087653;28;20096;-78
2021/07/26 13:37:14;;;;;;;2.05;1.40;;;;;;;;;;5090946;28;20032;-79
2021/07/26 13:39:39;;;;;;;2.35;1.80;;;;;;;;;;5094879;28;20088;-78
2021/07/26 13:42:05;;;;;;;3.00;1.70;;;;;;;;;;5094545;28;20040;-78
2021/07/26 13:44:30;;;;;;;2.67;1.52;;;;;;;;;;5075727;28;20029;-78
2021/07/26 13:46:56;;;;;;;6.35;1.83;;;;;;;;;;5076207;28;20075;-78
2021/07/26 13:49:21;;;;;;;2.63;1.30;;;;;;;;;;5093107;28;20028;-79
2021/07/26 13:51:47;;;;;;;2.75;1.70;;;;;;;;;;5074436;28;20033;-79
2021/07/26 13:54:12;;;;;;;3.08;1.60;;;;;;;;;;5072993;28;20104;-78
2021/07/26 13:56:38;;;;;;;2.13;1.65;;;;;;;;;;5074173;28;20486;-79
2021/07/26 13:59:03;;;;;;;2.67;2.00;;;;;;;;;;5087767;28;20036;-78
2021/07/26 14:01:28;;;;;;;3.75;1.90;;;;;;;;;;5068594;28;20043;-78
2021/07/26 14:03:54;;;;;;;10.45;1.52;;;;;;;;;;5067242;28;20032;-78
2021/07/26 14:06:19;;;;;;;8.20;2.85;;;;;;;;;;5047889;28;20041;-78
2021/07/26 14:08:45;;;;;;;8.85;3.13;;;;;;;;;;5046091;28;20037;-78
2021/07/26 14:11:10;;;;;;;7.15;1.88;;;;;;;;;;5059578;28;20039;-77
2021/07/26 14:13:35;;;;;;;4.05;1.60;;;;;;;;;;5075620;28;20036;-77
2021/07/26 14:16:01;;;;;;;12.45;2.33;;;;;;;;;;5083877;28;20040;-81
2021/07/26 14:18:26;;;;;;;4.15;1.50;;;;;;;;;;5070250;28;20043;-79
2021/07/26 14:20:53;;;;;;;1.77;1.52;;;;;;;;;;5082285;28;20044;-79
2021/07/26 14:23:19;;;;;;;7.72;2.15;;;;;;;;;;5064376;28;20025;-79
2021/07/26 14:25:44;;;;;;;4.22;1.63;;;;;;;;;;5063342;28;20083;-81
2021/07/26 14:28:10;;;;;;;28.55;6.32;;;;;;;;;;5065517;28;20037;-81
2021/07/26 14:30:35;;;;;;;4.72;1.95;;;;;;;;;;5063763;28;20120;-80
2021/07/26 14:33:02;;;;;;;1.85;1.38;;;;;;;;;;5063398;28;20041;-80
2021/07/26 14:35:27;;;;;;;3.22;1.52;;;;;;;;;;5063082;28;20092;-79
2021/07/26 14:37:53;;;;;;;2.58;1.90;;;;;;;;;;5062426;28;20086;-79
2021/07/26 14:40:18;;;;;;;9.00;1.70;;;;;;;;;;5060821;28;20033;-79
2021/07/26 14:42:43;;;;;;;5.55;2.10;;;;;;;;;;5043389;28;20033;-77
2021/07/26 14:45:09;;;;;;;1.77;1.55;;;;;;;;;;5057048;28;20487;-77